메인 페이지
METAR-TAF:

METAR-TAF

공항 :

카티마물릴로, 나미비아

위도: 17-38-04S, 경도: 024-10-36E, 고도: 985m

현재 날씨관측

예보는 39분 전, 10:00시(UTC)에 발표되었습니다.
4kt
온도 28°C
습도 58%
기압 1012 hPa
시정 10km 이상
고도 2500ft 상공 구름 조금

METAR: FYKM 181000Z 27004KT 9999 FEW025 28/19 Q1012

시각: 12:39 (10:39 UTC)

예보

예보는 2 시간 39분 전, 08:00시(UTC)에 발표되었습니다.
예보 대상 시간: 18일 09시부터 18일 18시까지 (UTC)
kt
시정 10km 이상
고도 2000ft 상공 구름 조금
전환 중
18일 10시부터 18일 12시까지 (UTC)
5kt
고도 4500ft 상공 구름 보통

TAF: FYKM 180800Z 1809/1818 00000KT 9999 FEW020 BECMG 1810/1812 26005KT SCT045

4,000개 이상의 공항 관측 자료 및 예보 (METAR 및 TAF 보고).

지도상에서 검색 가능한 기상관측소가 노란 점과 빨간 점으로 표시되어 있습니다.

기상관측소 명을 보려면 표시 위로 마우스를 이동하세요.

날씨 관측과 예보를 보려면 클릭하세요.

지도 변경 : 확대하려면 엑스 표시가 있는 녹색 버튼, 축소하려면 빼기 표시가 있는 녹색 버튼, 다음 페이지의 지도를 보려면 녹색 화살표를 클릭하세요.


METAR-TAF: